createdAt,value
2017-06-12T00:02:24.486Z,20.60
2017-06-12T00:04:52.775Z,20.70
2017-06-12T00:07:21.875Z,20.80
2017-06-12T00:09:50.165Z,20.70
2017-06-12T00:12:18.491Z,20.60
2017-06-12T00:14:46.788Z,20.60
2017-06-12T00:17:15.127Z,20.70
2017-06-12T00:19:43.423Z,20.80
2017-06-12T00:22:11.723Z,20.80
2017-06-12T00:24:40.815Z,20.70
2017-06-12T00:27:09.874Z,20.80
2017-06-12T00:29:38.206Z,20.80
2017-06-12T00:32:06.499Z,20.80
2017-06-12T00:34:34.827Z,20.80
2017-06-12T00:37:03.180Z,20.80
2017-06-12T00:39:31.509Z,20.80
2017-06-12T00:42:00.567Z,20.70
2017-06-12T00:44:28.908Z,20.70
2017-06-12T00:46:57.194Z,20.70
2017-06-12T00:49:25.539Z,20.70
2017-06-12T00:51:53.831Z,20.80
2017-06-12T00:54:25.934Z,20.70
2017-06-12T00:56:54.227Z,20.70
2017-06-12T00:59:22.550Z,20.30
2017-06-12T01:01:50.883Z,20.20
2017-06-12T01:04:19.208Z,20.10
2017-06-12T01:06:47.487Z,20.10
2017-06-12T01:09:16.554Z,20.00
2017-06-12T01:11:44.880Z,20.00
2017-06-12T01:14:13.178Z,20.00
2017-06-12T01:16:41.520Z,19.90
2017-06-12T01:19:09.814Z,19.80
2017-06-12T01:22:02.902Z,19.60
2017-06-12T01:24:31.257Z,19.60
2017-06-12T01:26:59.554Z,19.80
2017-06-12T01:29:27.839Z,19.90
2017-06-12T01:31:56.177Z,19.80
2017-06-12T01:34:24.462Z,19.80
2017-06-12T01:36:52.789Z,19.80
2017-06-12T01:39:21.083Z,19.80
2017-06-12T01:41:49.434Z,19.70
2017-06-12T01:44:17.720Z,19.70
2017-06-12T01:46:46.013Z,19.70
2017-06-12T01:49:14.341Z,19.70
2017-06-12T01:51:42.645Z,19.70
2017-06-12T01:54:10.923Z,19.80
2017-06-12T01:56:39.251Z,19.80
2017-06-12T01:59:07.552Z,19.80
2017-06-12T02:01:35.835Z,19.80
2017-06-12T02:04:04.940Z,19.80
2017-06-12T02:06:33.248Z,19.80
2017-06-12T02:09:01.553Z,19.80
2017-06-12T02:11:30.639Z,19.80
2017-06-12T02:13:58.976Z,19.80
2017-06-12T02:16:27.272Z,19.70
2017-06-12T02:18:55.571Z,19.60
2017-06-12T02:21:23.920Z,19.70
2017-06-12T02:23:54.019Z,19.70
2017-06-12T02:26:22.300Z,19.60
2017-06-12T02:28:50.623Z,19.60
2017-06-12T02:31:18.912Z,19.50
2017-06-12T02:33:48.175Z,19.50
2017-06-12T02:36:39.252Z,19.60
2017-06-12T02:39:07.592Z,19.60
2017-06-12T02:41:36.660Z,19.50
2017-06-12T02:44:04.962Z,19.50
2017-06-12T02:46:33.347Z,19.50
2017-06-12T02:49:01.644Z,19.40
2017-06-12T02:51:34.923Z,19.50
2017-06-12T02:54:03.768Z,19.50
2017-06-12T02:56:32.069Z,19.50
2017-06-12T02:59:00.415Z,19.50
2017-06-12T03:01:28.715Z,19.60
2017-06-12T03:03:57.768Z,19.60
2017-06-12T03:06:26.112Z,19.50
2017-06-12T03:08:54.402Z,19.60
2017-06-12T03:11:23.452Z,19.70
2017-06-12T03:13:51.793Z,19.70
2017-06-12T03:16:20.091Z,19.70
2017-06-12T03:18:48.399Z,19.70
2017-06-12T03:21:16.724Z,19.60
2017-06-12T03:23:45.061Z,19.60
2017-06-12T03:26:13.344Z,19.60
2017-06-12T03:28:41.632Z,19.60
2017-06-12T03:31:09.965Z,19.60
2017-06-12T03:33:38.312Z,19.60
2017-06-12T03:36:06.605Z,19.60
2017-06-12T03:38:34.897Z,19.60
2017-06-12T03:41:03.867Z,19.60
2017-06-12T03:43:32.192Z,19.60
2017-06-12T03:46:00.519Z,19.60
2017-06-12T03:48:28.843Z,19.70
2017-06-12T03:50:57.136Z,19.70
2017-06-12T03:53:25.456Z,19.80
2017-06-12T03:55:53.784Z,19.90
2017-06-12T03:58:22.294Z,19.90
2017-06-12T04:00:51.347Z,19.90
2017-06-12T04:03:19.725Z,19.80
2017-06-12T04:05:48.007Z,19.90
2017-06-12T04:08:16.300Z,20.00
2017-06-12T04:10:44.630Z,20.00
2017-06-12T04:13:12.930Z,20.00
2017-06-12T04:15:41.256Z,20.00
2017-06-12T04:18:09.547Z,20.00
2017-06-12T04:20:37.876Z,20.20
2017-06-12T04:23:06.159Z,20.20
2017-06-12T04:25:34.450Z,20.30
2017-06-12T04:28:02.776Z,20.30
2017-06-12T04:30:31.079Z,20.30
2017-06-12T04:32:59.415Z,20.30
2017-06-12T04:35:27.708Z,20.30
2017-06-12T04:37:55.994Z,20.50
2017-06-12T04:40:25.095Z,20.70
2017-06-12T04:42:53.382Z,20.70
2017-06-12T04:45:21.739Z,20.90
2017-06-12T04:47:50.030Z,21.20
2017-06-12T04:50:18.355Z,21.40
2017-06-12T04:52:47.526Z,21.50
2017-06-12T04:55:15.879Z,21.60
2017-06-12T04:57:44.171Z,21.60
2017-06-12T05:00:12.457Z,21.60
2017-06-12T05:02:40.819Z,21.60
2017-06-12T05:05:09.113Z,21.60
2017-06-12T05:07:38.172Z,21.60
2017-06-12T05:10:06.514Z,21.60
2017-06-12T05:12:34.876Z,21.60
2017-06-12T05:15:03.167Z,21.70
2017-06-12T05:17:31.460Z,21.70
2017-06-12T05:19:59.791Z,21.70
2017-06-12T05:22:28.883Z,21.90
2017-06-12T05:24:57.980Z,21.80
2017-06-12T05:27:26.272Z,21.80
2017-06-12T05:29:54.612Z,21.70
2017-06-12T05:32:22.903Z,21.60
2017-06-12T05:34:51.204Z,21.60
2017-06-12T05:37:20.310Z,21.60
2017-06-12T05:39:48.591Z,21.60
2017-06-12T05:42:16.942Z,21.60
2017-06-12T05:44:45.217Z,21.60
2017-06-12T05:47:13.516Z,21.60
2017-06-12T05:49:41.843Z,21.50
2017-06-12T05:52:10.136Z,21.50
2017-06-12T05:54:38.428Z,21.60
2017-06-12T05:57:07.528Z,21.60
2017-06-12T05:59:35.827Z,21.60
2017-06-12T06:02:04.113Z,21.60
2017-06-12T06:04:32.448Z,21.70
2017-06-12T06:07:00.735Z,21.80
2017-06-12T06:09:29.065Z,21.70
2017-06-12T06:11:57.358Z,21.60
2017-06-12T06:14:25.704Z,21.70
2017-06-12T06:16:53.992Z,21.80
2017-06-12T06:19:23.055Z,21.80
2017-06-12T06:21:51.389Z,21.80
2017-06-12T06:24:19.684Z,21.90
2017-06-12T06:26:48.084Z,21.90
2017-06-12T06:29:16.387Z,21.90
2017-06-12T06:31:44.700Z,22.00
2017-06-12T06:34:13.035Z,21.90
2017-06-12T06:36:42.113Z,21.90
2017-06-12T06:39:10.391Z,21.80
2017-06-12T06:41:38.723Z,21.60
2017-06-12T06:44:07.017Z,21.70
2017-06-12T06:46:36.063Z,21.80
2017-06-12T06:49:04.384Z,21.80
2017-06-12T06:51:32.727Z,21.80
2017-06-12T06:54:01.819Z,21.80
2017-06-12T06:56:30.111Z,21.80
2017-06-12T06:58:58.408Z,22.00
2017-06-12T07:01:31.655Z,22.10
2017-06-12T07:03:59.946Z,22.30
2017-06-12T07:06:28.275Z,22.40
2017-06-12T07:08:56.571Z,22.40
2017-06-12T07:11:24.857Z,22.30
2017-06-12T07:13:53.192Z,22.40
2017-06-12T07:16:21.917Z,22.60
2017-06-12T07:18:50.251Z,22.70
2017-06-12T07:21:18.583Z,22.90
2017-06-12T07:23:47.680Z,23.10
2017-06-12T07:26:16.797Z,22.80
2017-06-12T07:28:45.904Z,22.70
2017-06-12T07:31:14.246Z,22.60
2017-06-12T07:33:43.459Z,22.50
2017-06-12T07:36:12.539Z,22.70
2017-06-12T07:38:40.880Z,22.70
2017-06-12T07:41:09.171Z,23.00
2017-06-12T07:43:37.502Z,23.40
2017-06-12T07:46:05.795Z,23.60
2017-06-12T07:48:38.863Z,23.60
2017-06-12T07:51:07.155Z,23.20
2017-06-12T07:53:36.212Z,23.20
2017-06-12T07:56:04.634Z,23.20
2017-06-12T07:58:32.942Z,23.60
2017-06-12T08:01:08.021Z,23.60
2017-06-12T08:03:36.303Z,23.90
2017-06-12T08:06:04.627Z,23.70
2017-06-12T08:08:32.947Z,23.50
2017-06-12T08:11:01.228Z,23.20
2017-06-12T08:13:31.307Z,23.50
2017-06-12T08:15:59.598Z,23.50
2017-06-12T08:18:27.891Z,23.60
2017-06-12T08:20:56.224Z,23.40
2017-06-12T08:23:39.078Z,23.60
2017-06-12T08:26:07.420Z,23.60
2017-06-12T08:28:35.712Z,23.60
2017-06-12T08:31:04.084Z,23.80
2017-06-12T08:33:33.251Z,24.40
2017-06-12T08:36:03.520Z,24.40
2017-06-12T08:38:31.809Z,24.60
2017-06-12T08:41:00.133Z,24.80
2017-06-12T08:43:28.423Z,24.80
2017-06-12T08:45:57.612Z,24.30
2017-06-12T08:48:25.905Z,24.30
2017-06-12T08:50:54.183Z,24.20
2017-06-12T08:53:22.573Z,24.40
2017-06-12T08:55:50.866Z,24.50
2017-06-12T08:58:19.159Z,24.10
2017-06-12T09:00:47.508Z,24.40
2017-06-12T09:03:15.791Z,24.00
2017-06-12T09:05:44.852Z,23.70
2017-06-12T09:08:13.194Z,23.70
2017-06-12T09:10:41.492Z,24.00
2017-06-12T09:13:10.543Z,24.50
2017-06-12T09:15:39.828Z,24.40
2017-06-12T09:18:08.164Z,24.20
2017-06-12T09:20:36.504Z,23.80
2017-06-12T09:23:04.798Z,23.80
2017-06-12T09:25:33.119Z,24.10
2017-06-12T09:28:01.454Z,24.20
2017-06-12T09:30:29.750Z,24.40
2017-06-12T09:33:20.669Z,24.70
2017-06-12T09:35:48.970Z,25.10
2017-06-12T09:38:18.075Z,25.00
2017-06-12T09:40:46.428Z,25.00
2017-06-12T09:43:14.720Z,25.00
2017-06-12T09:45:43.011Z,24.90
2017-06-12T09:48:11.353Z,24.60
2017-06-12T09:50:39.643Z,24.30
2017-06-12T09:53:07.939Z,23.60
2017-06-12T09:55:36.264Z,23.20
2017-06-12T09:58:04.655Z,23.40
2017-06-12T10:00:32.943Z,23.90
2017-06-12T10:03:01.399Z,24.20
2017-06-12T10:05:29.689Z,24.40
2017-06-12T10:07:58.079Z,23.60
2017-06-12T10:10:26.366Z,23.50
2017-06-12T10:12:54.647Z,23.60
2017-06-12T10:15:23.012Z,24.00
2017-06-12T10:17:51.303Z,24.30
2017-06-12T10:20:19.589Z,24.70
2017-06-12T10:22:47.916Z,25.00
2017-06-12T10:25:16.975Z,25.30
2017-06-12T10:27:46.003Z,25.30
2017-06-12T10:30:14.295Z,25.30
2017-06-12T10:32:42.586Z,25.40
2017-06-12T10:35:10.930Z,25.20
2017-06-12T10:37:39.233Z,24.90
2017-06-12T10:40:07.902Z,24.30
2017-06-12T10:42:36.219Z,23.80
2017-06-12T10:45:04.561Z,24.20
2017-06-12T10:47:32.849Z,24.60
2017-06-12T10:50:01.183Z,24.80
2017-06-12T10:52:29.481Z,24.90
2017-06-12T10:55:01.830Z,24.30
2017-06-12T10:57:30.123Z,23.80
2017-06-12T10:59:58.412Z,23.50
2017-06-12T11:02:26.747Z,23.10
2017-06-12T11:05:04.836Z,22.90
2017-06-12T11:07:33.948Z,23.40
2017-06-12T11:10:02.269Z,23.30
2017-06-12T11:12:31.323Z,24.00
2017-06-12T11:15:03.704Z,24.00
2017-06-12T11:17:31.983Z,24.20
2017-06-12T11:20:00.289Z,24.00
2017-06-12T11:22:44.483Z,24.20
2017-06-12T11:25:12.776Z,24.30
2017-06-12T11:27:56.760Z,24.00
2017-06-12T11:30:25.044Z,24.00
2017-06-12T11:32:53.343Z,24.40
2017-06-12T11:35:21.659Z,24.70
2017-06-12T11:37:49.956Z,24.80
2017-06-12T11:40:18.297Z,24.70
2017-06-12T11:42:46.585Z,24.50
2017-06-12T11:45:14.928Z,24.20
2017-06-12T11:47:43.215Z,23.90
2017-06-12T11:50:11.514Z,23.90
2017-06-12T11:52:40.621Z,24.00
2017-06-12T11:55:08.932Z,24.00
2017-06-12T11:57:37.264Z,24.00
2017-06-12T12:00:05.551Z,23.90
2017-06-12T12:02:33.847Z,23.90
2017-06-12T12:05:03.119Z,24.10
2017-06-12T12:07:31.412Z,24.10
2017-06-12T12:09:59.752Z,24.10
2017-06-12T12:12:28.811Z,24.50
2017-06-12T12:14:59.106Z,24.40
2017-06-12T12:17:27.391Z,24.40
2017-06-12T12:19:56.452Z,23.60
2017-06-12T12:22:24.784Z,23.60
2017-06-12T12:24:53.123Z,23.70
2017-06-12T12:27:27.325Z,23.50
2017-06-12T12:29:55.659Z,23.70
2017-06-12T12:32:24.787Z,24.10
2017-06-12T12:34:53.091Z,24.10
2017-06-12T12:37:21.415Z,24.00
2017-06-12T12:39:49.712Z,23.80
2017-06-12T12:42:18.073Z,23.90
2017-06-12T12:44:46.362Z,23.80
2017-06-12T12:47:14.647Z,23.60
2017-06-12T12:49:42.980Z,23.50
2017-06-12T12:52:11.276Z,23.40
2017-06-12T12:57:31.575Z,23.20
2017-06-12T12:59:59.900Z,22.60
2017-06-12T13:02:28.187Z,22.50
2017-06-12T13:04:56.524Z,22.40
2017-06-12T13:07:24.807Z,22.60
2017-06-12T13:09:53.139Z,22.80
2017-06-12T13:12:21.462Z,23.00
2017-06-12T13:14:49.761Z,23.00
2017-06-12T13:17:18.105Z,23.30
2017-06-12T13:19:47.171Z,23.60
2017-06-12T13:22:15.467Z,23.60
2017-06-12T13:24:43.787Z,23.60
2017-06-12T13:27:12.075Z,23.90
2017-06-12T13:29:41.163Z,24.30
2017-06-12T13:32:10.215Z,24.30
2017-06-12T13:34:40.514Z,24.30
2017-06-12T13:37:08.808Z,23.90
2017-06-12T13:39:37.868Z,23.50
2017-06-12T13:42:06.200Z,23.40
2017-06-12T13:44:34.496Z,23.50
2017-06-12T13:47:03.777Z,23.30
2017-06-12T13:49:32.062Z,23.40
2017-06-12T13:52:01.111Z,23.00
2017-06-12T13:54:29.456Z,23.00
2017-06-12T13:56:57.752Z,22.90
2017-06-12T13:59:26.835Z,22.90
2017-06-12T14:01:55.189Z,22.90
2017-06-12T14:04:23.475Z,22.60
2017-06-12T14:06:51.765Z,22.50
2017-06-12T14:09:20.104Z,22.40
2017-06-12T14:11:48.394Z,22.40
2017-06-12T14:14:16.726Z,22.70
2017-06-12T14:16:45.029Z,23.00
2017-06-12T14:19:13.367Z,22.90
2017-06-12T14:21:41.703Z,22.90
2017-06-12T14:24:10.005Z,22.80
2017-06-12T14:26:38.302Z,22.90
2017-06-12T14:29:06.653Z,22.90
2017-06-12T14:31:34.955Z,23.20
2017-06-12T14:34:03.243Z,23.50
2017-06-12T14:36:32.402Z,23.50
2017-06-12T14:39:00.700Z,23.60
2017-06-12T14:41:36.875Z,23.80
2017-06-12T14:44:05.167Z,23.60
2017-06-12T14:46:33.461Z,23.00
2017-06-12T14:49:01.812Z,22.50
2017-06-12T14:51:30.104Z,22.40
2017-06-12T14:53:58.447Z,22.30
2017-06-12T14:56:27.780Z,22.40
2017-06-12T14:58:56.343Z,22.40
2017-06-12T15:01:25.397Z,22.20
2017-06-12T15:03:53.742Z,22.10
2017-06-12T15:06:22.032Z,22.00
2017-06-12T15:08:50.324Z,22.10
2017-06-12T15:11:18.668Z,22.10
2017-06-12T15:13:47.560Z,22.10
2017-06-12T15:16:15.863Z,22.20
2017-06-12T15:18:44.187Z,22.00
2017-06-12T15:21:13.288Z,22.40
2017-06-12T15:23:41.585Z,22.40
2017-06-12T15:26:09.923Z,22.20
2017-06-12T15:28:38.208Z,22.10
2017-06-12T15:31:06.568Z,21.90
2017-06-12T15:33:40.870Z,21.80
2017-06-12T15:36:09.203Z,21.90
2017-06-12T15:38:37.547Z,22.20
2017-06-12T15:41:06.271Z,22.60
2017-06-12T15:43:34.567Z,22.20
2017-06-12T15:46:03.692Z,22.10
2017-06-12T15:48:37.775Z,22.10
2017-06-12T15:51:06.103Z,21.90
2017-06-12T15:53:34.399Z,22.90
2017-06-12T15:56:02.760Z,24.70
2017-06-12T15:58:36.913Z,25.80
2017-06-12T16:01:05.276Z,26.70
2017-06-12T16:03:33.623Z,26.20
2017-06-12T16:06:01.910Z,24.60
2017-06-12T16:08:36.373Z,25.80
2017-06-12T16:11:04.707Z,25.80
2017-06-12T16:13:33.083Z,26.80
2017-06-12T16:16:01.363Z,26.80
2017-06-12T16:18:29.655Z,25.70
2017-06-12T16:20:58.102Z,24.80
2017-06-12T16:23:26.393Z,24.10
2017-06-12T16:25:54.707Z,23.30
2017-06-12T16:28:23.035Z,22.70
2017-06-12T16:30:51.407Z,22.50
2017-06-12T16:33:19.707Z,22.40
2017-06-12T16:35:48.004Z,23.40
2017-06-12T16:38:16.779Z,23.70
2017-06-12T16:40:45.162Z,23.40
2017-06-12T16:43:13.466Z,22.90
2017-06-12T16:45:41.831Z,23.30
2017-06-12T16:48:10.132Z,23.50
2017-06-12T16:50:39.189Z,23.70
2017-06-12T16:53:07.531Z,23.70
2017-06-12T16:55:35.820Z,23.70
2017-06-12T16:58:10.002Z,23.10
2017-06-12T17:00:39.320Z,22.60
2017-06-12T17:03:07.607Z,22.10
2017-06-12T17:05:56.717Z,21.70
2017-06-12T17:08:26.979Z,21.40
2017-06-12T17:10:55.311Z,21.30
2017-06-12T17:13:23.595Z,21.30
2017-06-12T17:15:52.028Z,21.10
2017-06-12T17:18:20.425Z,21.10
2017-06-12T17:20:52.584Z,21.10
2017-06-12T17:23:20.920Z,21.20
2017-06-12T17:25:49.224Z,21.20
2017-06-12T17:28:19.499Z,21.20
2017-06-12T17:30:47.847Z,21.20
2017-06-12T17:33:16.171Z,21.30
2017-06-12T17:35:44.455Z,21.20
2017-06-12T17:38:12.779Z,21.20
2017-06-12T17:40:41.063Z,21.20
2017-06-12T17:43:09.449Z,21.20
2017-06-12T17:45:38.495Z,20.90
2017-06-12T17:48:06.777Z,20.90
2017-06-12T17:50:35.326Z,20.70
2017-06-12T17:53:03.674Z,20.70
2017-06-12T17:55:32.932Z,20.70
2017-06-12T17:58:01.219Z,20.70
2017-06-12T18:00:29.567Z,20.70
2017-06-12T18:02:57.863Z,20.50
2017-06-12T18:05:26.155Z,20.30
2017-06-12T18:07:54.531Z,20.40
2017-06-12T18:10:29.636Z,20.50
2017-06-12T18:12:58.841Z,20.60
2017-06-12T18:15:27.120Z,20.60
2017-06-12T18:17:55.399Z,20.60
2017-06-12T18:20:36.587Z,20.50
2017-06-12T18:23:05.975Z,20.50
2017-06-12T18:25:36.372Z,20.50
2017-06-12T18:28:04.826Z,20.40
2017-06-12T18:30:33.115Z,20.40
2017-06-12T18:33:02.179Z,20.20
2017-06-12T18:35:30.595Z,20.20
2017-06-12T18:37:59.067Z,20.10
2017-06-12T18:40:27.384Z,20.00
2017-06-12T18:43:01.070Z,20.00
2017-06-12T18:45:29.373Z,19.80
2017-06-12T18:47:57.759Z,19.80
2017-06-12T18:50:26.065Z,19.80
2017-06-12T18:52:55.519Z,19.70
2017-06-12T18:55:30.605Z,19.70
2017-06-12T18:57:58.920Z,19.70
2017-06-12T19:00:27.255Z,19.70
2017-06-12T19:02:55.548Z,19.50
2017-06-12T19:05:24.664Z,19.40
2017-06-12T19:07:52.989Z,19.40
2017-06-12T19:10:21.325Z,19.30
2017-06-12T19:12:53.592Z,19.30
2017-06-12T19:15:21.923Z,19.40
2017-06-12T19:17:50.216Z,19.30
2017-06-12T19:20:18.502Z,19.10
2017-06-12T19:22:51.476Z,19.10
2017-06-12T19:25:19.768Z,19.10
2017-06-12T19:27:50.014Z,19.00
2017-06-12T19:30:18.322Z,19.10
2017-06-12T19:32:46.655Z,19.10
2017-06-12T19:35:14.942Z,19.10
2017-06-12T19:37:44.233Z,19.10
2017-06-12T19:43:09.927Z,18.90
2017-06-12T19:45:40.036Z,18.70
2017-06-12T19:48:08.323Z,18.70
2017-06-12T19:50:36.669Z,18.60
2017-06-12T19:53:09.818Z,18.50
2017-06-12T19:55:38.891Z,18.20
2017-06-12T19:58:08.004Z,18.10
2017-06-12T20:00:36.607Z,18.10
2017-06-12T20:03:07.107Z,18.00
2017-06-12T20:05:35.643Z,18.00
2017-06-12T20:08:05.276Z,18.10
2017-06-12T20:10:34.416Z,18.20
2017-06-12T20:13:06.815Z,18.20
2017-06-12T20:15:35.143Z,18.30
2017-06-12T20:18:03.427Z,18.20
2017-06-12T20:20:46.898Z,18.10
2017-06-12T20:23:15.960Z,17.90
2017-06-12T20:25:44.304Z,17.90
2017-06-12T20:28:12.656Z,18.00
2017-06-12T20:30:40.980Z,18.00
2017-06-12T20:33:09.354Z,17.90
2017-06-12T20:35:37.684Z,18.00
2017-06-12T20:38:05.976Z,18.00
2017-06-12T20:40:34.337Z,18.00
2017-06-12T20:43:02.685Z,17.90
2017-06-12T20:45:31.022Z,17.90
2017-06-12T20:47:59.359Z,18.00
2017-06-12T20:50:27.649Z,17.90
2017-06-12T20:52:55.932Z,17.90
2017-06-12T20:55:25.035Z,17.80
2017-06-12T20:57:53.399Z,17.80
2017-06-12T21:00:21.683Z,17.90
2017-06-12T21:02:50.143Z,17.80
2017-06-12T21:05:19.501Z,17.80
2017-06-12T21:07:47.846Z,17.70
2017-06-12T21:10:23.632Z,17.80
2017-06-12T21:12:51.975Z,17.80
2017-06-12T21:15:20.275Z,17.70
2017-06-12T21:30:43.980Z,17.70
2017-06-12T21:33:12.275Z,17.90
2017-06-12T21:35:40.611Z,17.80
2017-06-12T21:38:08.895Z,17.80
2017-06-12T21:40:37.204Z,17.70
2017-06-12T21:43:05.543Z,17.60
2017-06-12T21:45:33.884Z,17.50
2017-06-12T21:48:02.168Z,17.50
2017-06-12T21:50:30.456Z,17.40
2017-06-12T21:52:58.800Z,17.40
2017-06-12T21:55:27.852Z,17.20
2017-06-12T21:57:56.135Z,17.20
2017-06-12T22:00:24.475Z,17.20
2017-06-12T22:02:52.759Z,17.10
2017-06-12T22:05:21.039Z,17.10
2017-06-12T22:07:49.359Z,17.10
2017-06-12T22:10:17.691Z,17.20
2017-06-12T22:12:45.979Z,17.10
2017-06-12T22:15:14.273Z,17.20
2017-06-12T22:17:42.870Z,17.20
2017-06-12T22:20:11.163Z,17.00
2017-06-12T22:22:39.542Z,17.10
2017-06-12T22:25:07.858Z,17.10
2017-06-12T22:27:36.208Z,17.00
2017-06-12T22:30:05.295Z,16.90
2017-06-12T22:32:33.656Z,16.90
2017-06-12T22:35:01.979Z,16.80
2017-06-12T22:37:30.259Z,16.90
2017-06-12T22:39:58.552Z,16.80
2017-06-12T22:42:26.935Z,16.80
2017-06-12T22:44:55.364Z,16.70
2017-06-12T22:47:24.433Z,16.90
2017-06-12T22:49:52.791Z,16.90
2017-06-12T22:52:21.111Z,16.90
2017-06-12T22:54:49.487Z,16.90
2017-06-12T22:57:17.868Z,16.90
2017-06-12T22:59:46.963Z,16.90
2017-06-12T23:02:15.307Z,16.80
2017-06-12T23:04:43.592Z,16.90
2017-06-12T23:07:11.874Z,16.90
2017-06-12T23:09:40.303Z,16.90
2017-06-12T23:12:09.031Z,16.80
2017-06-12T23:14:37.347Z,16.90
2017-06-12T23:17:06.395Z,16.80
2017-06-12T23:19:34.723Z,16.80
2017-06-12T23:22:03.771Z,16.70
2017-06-12T23:24:32.063Z,16.70
2017-06-12T23:27:00.399Z,16.70
2017-06-12T23:29:28.691Z,16.80
2017-06-12T23:31:56.975Z,16.80
2017-06-12T23:34:25.295Z,16.80
2017-06-12T23:36:54.493Z,16.70
2017-06-12T23:39:23.547Z,16.80
2017-06-12T23:41:51.963Z,16.70
2017-06-12T23:44:21.009Z,16.70
2017-06-12T23:46:49.288Z,16.70
2017-06-12T23:49:17.611Z,16.70
2017-06-12T23:51:45.899Z,16.70
2017-06-12T23:54:15.008Z,16.60
2017-06-12T23:56:43.287Z,16.50
2017-06-12T23:59:11.578Z,16.60
